createdAt,value
2022-09-18T00:01:16.140Z,13.00
2022-09-18T00:03:43.472Z,13.00
2022-09-18T00:06:13.075Z,13.00
2022-09-18T00:08:40.255Z,13.00
2022-09-18T00:11:09.329Z,13.00
2022-09-18T00:13:38.079Z,13.00
2022-09-18T00:16:06.393Z,13.00
2022-09-18T00:18:33.262Z,13.00
2022-09-18T00:21:08.140Z,12.90
2022-09-18T00:23:35.528Z,13.00
2022-09-18T00:26:02.452Z,13.00
2022-09-18T00:28:29.127Z,13.00
2022-09-18T00:30:55.755Z,13.00
2022-09-18T00:33:22.472Z,13.00
2022-09-18T00:35:49.037Z,13.00
2022-09-18T00:38:15.678Z,13.00
2022-09-18T00:40:42.425Z,13.10
2022-09-18T00:43:22.430Z,13.10
2022-09-18T00:45:59.330Z,13.10
2022-09-18T00:48:37.699Z,13.10
2022-09-18T00:51:04.787Z,13.00
2022-09-18T00:53:31.518Z,13.10
2022-09-18T00:55:59.247Z,13.10
2022-09-18T00:58:25.825Z,13.10
2022-09-18T01:00:55.476Z,13.10
2022-09-18T01:03:22.218Z,13.20
2022-09-18T01:06:10.473Z,13.10
2022-09-18T01:09:00.551Z,13.10
2022-09-18T01:11:51.942Z,13.10
2022-09-18T01:15:04.799Z,13.10
2022-09-18T01:17:44.524Z,13.10
2022-09-18T01:20:35.069Z,13.10
2022-09-18T01:23:37.110Z,13.10
2022-09-18T01:26:44.452Z,13.20
2022-09-18T01:29:24.587Z,13.10
2022-09-18T01:32:08.844Z,13.10
2022-09-18T01:34:54.573Z,13.10
2022-09-18T01:37:41.053Z,13.10
2022-09-18T01:40:17.521Z,13.10
2022-09-18T01:42:47.814Z,13.10
2022-09-18T01:45:22.872Z,13.10
2022-09-18T01:48:07.558Z,13.10
2022-09-18T01:50:39.541Z,13.10
2022-09-18T01:53:21.122Z,13.10
2022-09-18T01:55:59.420Z,13.20
2022-09-18T01:58:28.328Z,13.20
2022-09-18T02:00:59.188Z,13.20
2022-09-18T02:03:36.076Z,13.20
2022-09-18T02:06:06.218Z,13.20
2022-09-18T02:08:43.066Z,13.20
2022-09-18T02:11:12.501Z,13.20
2022-09-18T02:13:47.997Z,13.20
2022-09-18T02:16:23.079Z,13.10
2022-09-18T02:18:53.370Z,13.10
2022-09-18T02:21:26.392Z,13.10
2022-09-18T02:23:57.896Z,13.20
2022-09-18T02:26:25.001Z,13.20
2022-09-18T02:28:53.175Z,13.20
2022-09-18T02:31:20.531Z,13.20
2022-09-18T02:33:47.264Z,13.20
2022-09-18T02:36:32.672Z,13.20
2022-09-18T02:39:19.362Z,13.30
2022-09-18T02:42:11.070Z,13.20
2022-09-18T02:45:15.781Z,13.20
2022-09-18T02:48:20.203Z,13.20
2022-09-18T02:50:46.757Z,13.30
2022-09-18T02:53:23.578Z,13.20
2022-09-18T02:56:22.512Z,13.20
2022-09-18T02:58:57.493Z,13.30
2022-09-18T03:01:26.685Z,13.30
2022-09-18T03:03:53.721Z,13.20
2022-09-18T03:06:20.323Z,13.20
2022-09-18T03:08:46.914Z,13.20
2022-09-18T03:11:13.599Z,13.20
2022-09-18T03:13:40.205Z,13.20
2022-09-18T03:16:06.884Z,13.20
2022-09-18T03:18:33.498Z,13.20
2022-09-18T03:21:00.112Z,13.20
2022-09-18T03:23:26.701Z,13.20
2022-09-18T03:25:53.298Z,13.20
2022-09-18T03:28:19.890Z,13.20
2022-09-18T03:30:46.746Z,13.20
2022-09-18T03:33:13.689Z,13.20
2022-09-18T03:35:40.305Z,13.20
2022-09-18T03:38:06.966Z,13.20
2022-09-18T03:40:33.705Z,13.20
2022-09-18T03:43:00.380Z,13.20
2022-09-18T03:45:26.947Z,13.10
2022-09-18T03:47:53.522Z,13.10
2022-09-18T03:50:20.172Z,13.20
2022-09-18T03:52:51.319Z,13.20
2022-09-18T03:55:18.395Z,13.20
2022-09-18T03:57:46.792Z,13.20
2022-09-18T04:00:14.544Z,13.20
2022-09-18T04:02:41.946Z,13.20
2022-09-18T04:05:09.154Z,13.20
2022-09-18T04:07:36.063Z,13.20
2022-09-18T04:10:03.526Z,13.20
2022-09-18T04:12:30.181Z,13.20
2022-09-18T04:14:56.753Z,13.20
2022-09-18T04:17:23.658Z,13.20
2022-09-18T04:19:53.641Z,13.20
2022-09-18T04:22:21.599Z,13.20
2022-09-18T04:24:50.216Z,13.20
2022-09-18T04:27:17.012Z,13.20
2022-09-18T04:29:43.573Z,13.20
2022-09-18T04:32:10.158Z,13.20
2022-09-18T04:34:36.829Z,13.20
2022-09-18T04:37:05.804Z,13.20
2022-09-18T04:39:36.168Z,13.20
2022-09-18T04:42:03.316Z,13.20
2022-09-18T04:44:30.148Z,13.20
2022-09-18T04:46:57.325Z,13.20
2022-09-18T04:49:24.037Z,13.20
2022-09-18T04:51:50.627Z,13.30
2022-09-18T04:54:17.241Z,13.30
2022-09-18T04:56:43.812Z,13.30
2022-09-18T04:59:10.431Z,13.30
2022-09-18T05:01:37.031Z,13.20
2022-09-18T05:04:03.668Z,13.20
2022-09-18T05:06:30.293Z,13.20
2022-09-18T05:08:57.968Z,13.20
2022-09-18T05:11:24.698Z,13.30
2022-09-18T05:13:58.372Z,13.30
2022-09-18T05:16:25.612Z,13.30
2022-09-18T05:18:52.920Z,13.30
2022-09-18T05:21:20.279Z,13.30
2022-09-18T05:23:47.890Z,13.30
2022-09-18T05:26:14.853Z,13.30
2022-09-18T05:28:41.842Z,13.30
2022-09-18T05:31:08.740Z,13.30
2022-09-18T05:33:36.493Z,13.30
2022-09-18T05:36:04.800Z,13.30
2022-09-18T05:38:31.373Z,13.30
2022-09-18T05:41:01.553Z,13.30
2022-09-18T05:43:29.138Z,13.30
2022-09-18T05:45:56.184Z,13.30
2022-09-18T05:48:22.806Z,13.20
2022-09-18T05:50:51.821Z,13.20
2022-09-18T05:53:20.007Z,13.20
2022-09-18T05:55:46.938Z,13.20
2022-09-18T05:58:15.798Z,13.20
2022-09-18T06:00:44.603Z,13.20
2022-09-18T06:03:13.614Z,13.20
2022-09-18T06:05:41.177Z,13.20
2022-09-18T06:08:10.032Z,13.20
2022-09-18T06:10:39.169Z,13.20
2022-09-18T06:13:05.798Z,13.20
2022-09-18T06:15:33.489Z,13.20
2022-09-18T06:18:00.101Z,13.20
2022-09-18T06:20:27.306Z,13.20
2022-09-18T06:22:54.062Z,13.20
2022-09-18T06:25:22.006Z,13.20
2022-09-18T06:27:53.389Z,13.20
2022-09-18T06:30:20.083Z,13.20
2022-09-18T06:32:46.658Z,13.20
2022-09-18T06:35:13.339Z,13.20
2022-09-18T06:37:39.941Z,13.30
2022-09-18T06:40:07.180Z,13.30
2022-09-18T06:42:33.887Z,13.30
2022-09-18T06:45:00.481Z,13.30
2022-09-18T06:47:27.053Z,13.30
2022-09-18T06:49:53.630Z,13.30
2022-09-18T06:52:20.275Z,13.30
2022-09-18T06:54:46.842Z,13.30
2022-09-18T06:57:13.441Z,13.40
2022-09-18T06:59:40.036Z,13.40
2022-09-18T07:02:18.687Z,13.40
2022-09-18T07:04:46.791Z,13.40
2022-09-18T07:07:13.457Z,13.40
2022-09-18T07:09:40.052Z,13.40
2022-09-18T07:12:06.841Z,13.40
2022-09-18T07:14:33.503Z,13.40
2022-09-18T07:17:00.195Z,13.40
2022-09-18T07:19:26.850Z,13.50
2022-09-18T07:21:53.452Z,13.40
2022-09-18T07:24:20.021Z,13.40
2022-09-18T07:26:46.672Z,13.50
2022-09-18T07:29:13.369Z,13.40
2022-09-18T07:31:40.043Z,13.40
2022-09-18T07:34:08.115Z,13.50
2022-09-18T07:36:34.706Z,13.50
2022-09-18T07:39:01.528Z,13.50
2022-09-18T07:41:28.206Z,13.50
2022-09-18T07:43:54.945Z,13.50
2022-09-18T07:46:21.698Z,13.60
2022-09-18T07:48:48.447Z,13.60
2022-09-18T07:51:15.558Z,13.60
2022-09-18T07:53:42.207Z,13.60
2022-09-18T07:56:12.545Z,13.60
2022-09-18T07:58:39.299Z,13.70
2022-09-18T08:01:06.449Z,13.70
2022-09-18T08:03:35.030Z,13.70
2022-09-18T08:06:05.009Z,13.80
2022-09-18T08:08:31.630Z,13.80
2022-09-18T08:10:59.397Z,13.80
2022-09-18T08:13:26.390Z,13.80
2022-09-18T08:15:53.209Z,13.90
2022-09-18T08:18:21.611Z,13.90
2022-09-18T08:20:48.222Z,13.90
2022-09-18T08:23:14.843Z,14.00
2022-09-18T08:25:42.082Z,14.00
2022-09-18T08:28:09.763Z,14.10
2022-09-18T08:30:36.524Z,14.10
2022-09-18T08:33:06.115Z,14.10
2022-09-18T08:35:33.523Z,14.20
2022-09-18T08:38:01.107Z,14.20
2022-09-18T08:41:11.932Z,14.20
2022-09-18T08:43:44.981Z,14.20
2022-09-18T08:46:18.199Z,14.20
2022-09-18T08:48:59.341Z,14.20
2022-09-18T08:51:34.514Z,14.30
2022-09-18T08:54:38.169Z,14.30
2022-09-18T08:57:15.602Z,14.40
2022-09-18T08:59:47.303Z,14.40
2022-09-18T09:02:28.255Z,14.40
2022-09-18T09:04:58.477Z,14.50
2022-09-18T09:07:33.824Z,14.50
2022-09-18T09:10:04.367Z,14.50
2022-09-18T09:12:30.950Z,14.50
2022-09-18T09:15:29.094Z,14.60
2022-09-18T09:18:07.779Z,14.60
2022-09-18T09:20:50.725Z,14.60
2022-09-18T09:23:39.037Z,14.60
2022-09-18T09:26:10.085Z,14.60
2022-09-18T09:28:59.837Z,14.60
2022-09-18T09:31:48.877Z,14.60
2022-09-18T09:34:40.730Z,14.60
2022-09-18T09:37:15.595Z,14.60
2022-09-18T09:39:53.647Z,14.60
2022-09-18T09:42:31.016Z,14.70
2022-09-18T09:45:18.998Z,14.80
2022-09-18T09:48:10.336Z,14.80
2022-09-18T09:50:58.262Z,14.90
2022-09-18T09:53:26.774Z,14.90
2022-09-18T09:56:28.854Z,14.90
2022-09-18T09:59:08.616Z,15.00
2022-09-18T10:01:49.372Z,15.00
2022-09-18T10:04:44.739Z,15.00
2022-09-18T10:07:32.094Z,15.10
2022-09-18T10:10:23.237Z,15.10
2022-09-18T10:12:58.539Z,15.10
2022-09-18T10:15:31.722Z,15.10
2022-09-18T10:18:01.252Z,15.10
2022-09-18T10:20:31.428Z,15.20
2022-09-18T10:23:25.573Z,15.20
2022-09-18T10:25:59.570Z,15.10
2022-09-18T10:28:29.366Z,15.20
2022-09-18T10:31:05.267Z,15.20
2022-09-18T10:33:36.383Z,15.20
2022-09-18T10:36:37.507Z,15.30
2022-09-18T10:39:38.796Z,15.20
2022-09-18T10:42:07.115Z,15.20
2022-09-18T10:44:37.616Z,15.20
2022-09-18T10:47:09.907Z,15.20
2022-09-18T10:50:21.006Z,15.20
2022-09-18T10:52:48.697Z,15.20
2022-09-18T10:55:22.337Z,15.20
2022-09-18T10:57:48.857Z,15.10
2022-09-18T11:00:21.787Z,15.10
2022-09-18T11:02:54.933Z,15.10
2022-09-18T11:05:29.257Z,15.10
2022-09-18T11:07:59.534Z,15.20
2022-09-18T11:10:28.107Z,15.20
2022-09-18T11:12:57.433Z,15.20
2022-09-18T11:15:28.254Z,15.20
2022-09-18T11:17:57.077Z,15.20
2022-09-18T11:20:28.457Z,15.20
2022-09-18T11:23:13.221Z,15.20
2022-09-18T11:25:39.918Z,15.20
2022-09-18T11:28:29.678Z,15.20
2022-09-18T11:31:05.707Z,15.20
2022-09-18T11:33:56.403Z,15.20
2022-09-18T11:36:27.035Z,15.10
2022-09-18T11:38:54.941Z,15.10
2022-09-18T11:41:24.959Z,15.10
2022-09-18T11:44:21.614Z,15.10
2022-09-18T11:47:06.414Z,15.10
2022-09-18T11:49:55.369Z,15.10
2022-09-18T11:52:36.879Z,15.00
2022-09-18T11:55:07.762Z,15.00
2022-09-18T11:57:45.016Z,15.00
2022-09-18T12:00:19.096Z,15.00
2022-09-18T12:03:27.050Z,15.10
2022-09-18T12:05:58.009Z,15.10
2022-09-18T12:08:42.369Z,15.00
2022-09-18T12:11:39.100Z,15.10
2022-09-18T12:14:14.654Z,15.10
2022-09-18T12:16:47.058Z,15.10
2022-09-18T12:19:22.777Z,15.10
2022-09-18T12:21:49.394Z,15.20
2022-09-18T12:24:17.535Z,15.20
2022-09-18T12:27:04.573Z,15.10
2022-09-18T12:30:03.395Z,15.10
2022-09-18T12:32:54.207Z,15.20
2022-09-18T12:35:46.368Z,15.20
2022-09-18T12:38:24.922Z,15.20
2022-09-18T12:41:14.133Z,15.30
2022-09-18T12:43:43.828Z,15.30
2022-09-18T12:46:25.455Z,15.30
2022-09-18T12:49:16.288Z,15.30
2022-09-18T12:51:48.091Z,15.30
2022-09-18T12:54:17.724Z,15.30
2022-09-18T12:57:08.935Z,15.30
2022-09-18T12:59:41.392Z,15.30
2022-09-18T13:02:31.862Z,15.30
2022-09-18T13:05:19.994Z,15.40
2022-09-18T13:07:56.658Z,15.30
2022-09-18T13:10:37.268Z,15.40
2022-09-18T13:13:28.291Z,15.40
2022-09-18T13:16:03.290Z,15.30
2022-09-18T13:18:54.964Z,15.30
2022-09-18T13:21:28.368Z,15.30
2022-09-18T13:23:56.853Z,15.40
2022-09-18T13:26:27.309Z,15.40
2022-09-18T13:28:54.014Z,15.40
2022-09-18T13:31:30.563Z,15.40
2022-09-18T13:34:04.247Z,15.40
2022-09-18T13:36:40.966Z,15.40
2022-09-18T13:39:28.584Z,15.40
2022-09-18T13:41:57.463Z,15.40
2022-09-18T13:44:34.665Z,15.40
2022-09-18T13:47:13.072Z,15.50
2022-09-18T13:49:50.952Z,15.50
2022-09-18T13:52:35.698Z,15.50
2022-09-18T13:55:11.556Z,15.50
2022-09-18T13:57:38.898Z,15.40
2022-09-18T14:00:20.764Z,15.50
2022-09-18T14:02:51.589Z,15.40
2022-09-18T14:05:34.851Z,15.40
2022-09-18T14:08:04.305Z,15.50
2022-09-18T14:10:59.473Z,15.40
2022-09-18T14:13:39.715Z,15.40
2022-09-18T14:16:23.783Z,15.40
2022-09-18T14:19:07.346Z,15.40
2022-09-18T14:21:40.485Z,15.40
2022-09-18T14:24:23.211Z,15.40
2022-09-18T14:26:59.061Z,15.40
2022-09-18T14:29:31.885Z,15.30
2022-09-18T14:32:00.774Z,15.40
2022-09-18T14:34:42.026Z,15.30
2022-09-18T14:37:29.107Z,15.30
2022-09-18T14:39:57.691Z,15.30
2022-09-18T14:42:33.145Z,15.30
2022-09-18T14:45:15.117Z,15.30
2022-09-18T14:47:44.558Z,15.30
2022-09-18T14:50:23.575Z,15.30
2022-09-18T14:52:50.344Z,15.30
2022-09-18T14:55:23.664Z,15.30
2022-09-18T14:58:01.018Z,15.30
2022-09-18T15:00:30.731Z,15.30
2022-09-18T15:03:01.013Z,15.30
2022-09-18T15:05:28.620Z,15.20
2022-09-18T15:08:01.965Z,15.30
2022-09-18T15:10:29.258Z,15.20
2022-09-18T15:12:57.972Z,15.20
2022-09-18T15:15:38.167Z,15.10
2022-09-18T15:18:16.530Z,15.10
2022-09-18T15:20:50.361Z,15.10
2022-09-18T15:23:29.068Z,15.10
2022-09-18T15:26:02.669Z,15.10
2022-09-18T15:28:34.481Z,15.10
2022-09-18T15:31:04.765Z,15.00
2022-09-18T15:33:34.296Z,15.10
2022-09-18T15:36:02.828Z,15.10
2022-09-18T15:38:46.004Z,15.10
2022-09-18T15:41:33.830Z,15.10
2022-09-18T15:44:00.626Z,15.10
2022-09-18T15:46:35.941Z,15.10
2022-09-18T15:49:29.755Z,15.00
2022-09-18T15:51:57.145Z,15.00
2022-09-18T15:54:26.729Z,14.90
2022-09-18T15:56:57.736Z,15.00
2022-09-18T15:59:37.784Z,14.90
2022-09-18T16:02:36.757Z,14.90
2022-09-18T16:05:14.915Z,14.90
2022-09-18T16:07:52.324Z,14.90
2022-09-18T16:10:34.387Z,15.00
2022-09-18T16:13:11.094Z,14.90
2022-09-18T16:15:37.909Z,14.90
2022-09-18T16:18:23.743Z,14.80
2022-09-18T16:20:57.619Z,14.70
2022-09-18T16:23:34.773Z,14.70
2022-09-18T16:26:21.425Z,14.70
2022-09-18T16:28:52.369Z,14.70
2022-09-18T16:31:22.104Z,14.70
2022-09-18T16:33:50.800Z,14.70
2022-09-18T16:36:31.523Z,14.70
2022-09-18T16:39:01.391Z,14.60
2022-09-18T16:41:29.767Z,14.60
2022-09-18T16:43:56.561Z,14.60
2022-09-18T16:46:27.788Z,14.50
2022-09-18T16:48:55.147Z,14.50
2022-09-18T16:51:22.016Z,14.50
2022-09-18T16:53:49.257Z,14.50
2022-09-18T16:56:21.492Z,14.40
2022-09-18T16:58:48.138Z,14.40
2022-09-18T17:01:15.514Z,14.40
2022-09-18T17:03:42.179Z,14.40
2022-09-18T17:06:08.838Z,14.30
2022-09-18T17:08:36.976Z,14.30
2022-09-18T17:11:05.012Z,14.30
2022-09-18T17:13:31.743Z,14.30
2022-09-18T17:16:01.673Z,14.20
2022-09-18T17:18:28.639Z,14.10
2022-09-18T17:20:55.233Z,14.10
2022-09-18T17:23:21.875Z,14.10
2022-09-18T17:25:48.442Z,14.00
2022-09-18T17:28:18.193Z,14.00
2022-09-18T17:30:45.155Z,14.00
2022-09-18T17:33:11.808Z,13.90
2022-09-18T17:35:38.455Z,13.90
2022-09-18T17:38:05.051Z,13.90
2022-09-18T17:40:31.920Z,13.80
2022-09-18T17:42:59.147Z,13.70
2022-09-18T17:45:25.795Z,13.70
2022-09-18T17:47:53.268Z,13.60
2022-09-18T17:50:20.773Z,13.60
2022-09-18T17:52:47.474Z,13.60
2022-09-18T17:55:14.207Z,13.60
2022-09-18T17:57:40.851Z,13.60
2022-09-18T18:00:09.596Z,13.60
2022-09-18T18:02:36.598Z,13.60
2022-09-18T18:05:03.466Z,13.50
2022-09-18T18:07:30.183Z,13.50
2022-09-18T18:09:56.792Z,13.50
2022-09-18T18:12:23.366Z,13.50
2022-09-18T18:14:49.964Z,13.40
2022-09-18T18:17:17.812Z,13.40
2022-09-18T18:19:44.425Z,13.40
2022-09-18T18:22:11.015Z,13.40
2022-09-18T18:24:37.829Z,13.30
2022-09-18T18:27:05.124Z,13.30
2022-09-18T18:29:31.797Z,13.30
2022-09-18T18:32:00.228Z,13.30
2022-09-18T18:34:26.960Z,13.30
2022-09-18T18:36:53.605Z,13.30
2022-09-18T18:39:20.277Z,13.20
2022-09-18T18:41:47.386Z,13.20
2022-09-18T18:44:14.642Z,13.20
2022-09-18T18:46:41.265Z,13.20
2022-09-18T18:49:10.560Z,13.20
2022-09-18T18:51:42.885Z,13.10
2022-09-18T18:54:10.002Z,13.00
2022-09-18T18:56:38.512Z,13.00
2022-09-18T18:59:07.276Z,13.00
2022-09-18T19:01:34.363Z,13.00
2022-09-18T19:04:06.557Z,12.90
2022-09-18T19:06:36.220Z,12.90
2022-09-18T19:09:24.362Z,12.90
2022-09-18T19:11:52.764Z,12.90
2022-09-18T19:14:25.872Z,12.80
2022-09-18T19:16:53.741Z,12.90
2022-09-18T19:19:23.318Z,12.90
2022-09-18T19:21:50.785Z,12.90
2022-09-18T19:24:20.429Z,12.80
2022-09-18T19:26:48.074Z,12.70
2022-09-18T19:29:17.749Z,12.70
2022-09-18T19:31:45.541Z,12.70
2022-09-18T19:34:14.637Z,12.60
2022-09-18T19:36:47.077Z,12.50
2022-09-18T19:39:14.281Z,12.50
2022-09-18T19:41:55.741Z,12.40
2022-09-18T19:44:37.060Z,12.30
2022-09-18T19:47:07.382Z,12.20
2022-09-18T19:49:37.592Z,12.20
2022-09-18T19:52:17.943Z,12.10
2022-09-18T19:54:46.374Z,12.10
2022-09-18T19:57:13.351Z,12.00
2022-09-18T19:59:40.028Z,11.90
2022-09-18T20:02:07.111Z,11.80
2022-09-18T20:04:36.346Z,11.80
2022-09-18T20:07:07.716Z,11.70
2022-09-18T20:09:34.353Z,11.70
2022-09-18T20:12:01.768Z,11.70
2022-09-18T20:14:28.668Z,11.70
2022-09-18T20:16:55.837Z,11.60
2022-09-18T20:19:23.936Z,11.50
2022-09-18T20:21:50.674Z,11.50
2022-09-18T20:24:17.441Z,11.50
2022-09-18T20:26:44.485Z,11.40
2022-09-18T20:29:16.105Z,11.40
2022-09-18T20:31:43.370Z,11.40
2022-09-18T20:34:10.969Z,11.40
2022-09-18T20:36:38.061Z,11.40
2022-09-18T20:39:05.035Z,11.30
2022-09-18T20:41:31.728Z,11.30
2022-09-18T20:44:04.725Z,11.20
2022-09-18T20:56:31.168Z,11.30
2022-09-18T20:58:58.284Z,11.30
2022-09-18T21:01:27.708Z,11.30
2022-09-18T21:04:00.190Z,11.30
2022-09-18T21:06:31.608Z,11.20
2022-09-18T21:08:59.248Z,11.20
2022-09-18T21:11:28.629Z,11.20
2022-09-18T21:14:00.871Z,11.20
2022-09-18T21:16:30.698Z,11.20
2022-09-18T21:19:00.131Z,11.20
2022-09-18T21:21:30.400Z,11.20
2022-09-18T21:24:04.162Z,11.20
2022-09-18T21:26:42.596Z,11.10
2022-09-18T21:29:23.588Z,11.20
2022-09-18T21:31:56.118Z,11.20
2022-09-18T21:34:29.959Z,11.20
2022-09-18T21:37:01.844Z,11.20
2022-09-18T21:39:29.365Z,11.10
2022-09-18T21:41:57.417Z,11.10
2022-09-18T21:44:29.000Z,11.10
2022-09-18T21:47:07.821Z,11.00
2022-09-18T21:49:34.851Z,11.00
2022-09-18T21:52:05.020Z,11.00
2022-09-18T21:54:32.571Z,11.00
2022-09-18T21:56:59.955Z,11.00
2022-09-18T21:59:30.136Z,11.00
2022-09-18T22:01:57.675Z,11.00
2022-09-18T22:04:27.903Z,11.00
2022-09-18T22:06:56.963Z,10.90
2022-09-18T22:09:29.175Z,10.80
2022-09-18T22:11:57.053Z,10.80
2022-09-18T22:14:28.509Z,10.80
2022-09-18T22:16:56.259Z,10.80
2022-09-18T22:19:22.965Z,10.80
2022-09-18T22:21:51.113Z,10.80
2022-09-18T22:24:20.068Z,10.80
2022-09-18T22:26:50.126Z,10.80
2022-09-18T22:29:20.335Z,10.70
2022-09-18T22:31:47.611Z,10.50
2022-09-18T22:34:17.225Z,10.40
2022-09-18T22:36:44.977Z,10.40
2022-09-18T22:39:12.590Z,10.30
2022-09-18T22:41:39.399Z,10.30
2022-09-18T22:44:07.170Z,10.20
2022-09-18T22:46:35.831Z,10.30
2022-09-18T22:49:02.491Z,10.20
2022-09-18T22:51:29.807Z,10.20
2022-09-18T22:54:02.636Z,10.20
2022-09-18T22:56:29.748Z,10.10
2022-09-18T22:58:58.178Z,10.10
2022-09-18T23:01:31.832Z,10.10
2022-09-18T23:03:59.814Z,10.10
2022-09-18T23:06:26.924Z,10.20
2022-09-18T23:08:55.733Z,10.10
2022-09-18T23:11:25.467Z,10.10
2022-09-18T23:14:00.836Z,10.00
2022-09-18T23:16:29.377Z,9.90
2022-09-18T23:18:58.968Z,9.90
2022-09-18T23:21:27.220Z,10.00
2022-09-18T23:23:56.722Z,10.10
2022-09-18T23:26:26.700Z,10.20
2022-09-18T23:28:55.072Z,10.20
2022-09-18T23:31:26.187Z,10.00
2022-09-18T23:33:54.834Z,10.00
2022-09-18T23:36:26.999Z,10.00
2022-09-18T23:38:58.894Z,10.10
2022-09-18T23:41:26.606Z,10.20
2022-09-18T23:43:54.216Z,10.20
2022-09-18T23:46:21.894Z,10.20
2022-09-18T23:48:54.705Z,10.30
2022-09-18T23:51:27.496Z,10.40
2022-09-18T23:53:59.841Z,10.50
2022-09-18T23:56:31.536Z,10.40
2022-09-18T23:59:01.081Z,10.50
